Terminal Aerodrome Forecast
Issued by NWS

Home | Current Version | Previous Version | Text Only | Print | Product List | Glossary On
Versions: 1 2 3 4 5 6 7 8 9 10 11 12 13 14
000
FTAK31 PAFA 241441 AAB
TAFASC
TAF AMD
PASC 241441Z 2415/2512 07015KT P6SM SCT009
     FM241800 07018G28KT 2SM BR BKN007 OVC015
     FM251100 07016KT 1/2SM FG OVC007=

USA.gov is the U.S. government's official web portal to all federal, state and local government web resources and services.